Time;durP1;ratioP1;P1;durP2;ratioP2;P2;SDS_P1;SDS_P2;PMS_P1;PMS_P2;Temp;Humidity;BMP_temperature;BMP_pressure;BME280_temperature;BME280_humidity;BME280_pressure;Samples;Min_cycle;Max_cycle;Signal;HPM_P1;HPM_P2
2023/09/04 00:02:24;;;;;;;3.60;3.30;;;14.50;99.90;;;-141.84;81.87;20008.94;5026945;28;20216;-66
2023/09/04 00:04:52;;;;;;;4.35;3.00;;;14.50;99.90;;;-141.84;82.91;19976.44;5037407;28;20263;-66
2023/09/04 00:07:21;;;;;;;3.80;3.50;;;14.40;99.90;;;-141.84;83.33;20015.03;5033001;28;20324;-66
2023/09/04 00:09:50;;;;;;;5.90;4.00;;;14.30;99.90;;;-141.84;83.91;19976.44;5024581;28;20328;-65
2023/09/04 00:12:20;;;;;;;4.10;3.70;;;14.30;99.90;;;-141.84;84.14;19980.50;5024287;28;20271;-65
2023/09/04 00:14:48;;;;;;;3.90;3.45;;;14.30;99.90;;;-141.84;83.42;20000.81;5026982;28;20229;-66
2023/09/04 00:17:17;;;;;;;4.82;4.43;;;14.30;99.90;;;-141.84;83.93;20002.84;5042101;28;20329;-65
2023/09/04 00:19:45;;;;;;;4.88;4.47;;;14.20;99.90;;;-141.84;84.35;19968.31;5024146;28;20229;-66
2023/09/04 00:22:14;;;;;;;4.85;4.07;;;14.20;99.90;;;-141.84;84.27;20000.81;5024416;28;20636;-65
2023/09/04 00:24:42;;;;;;;5.43;4.00;;;14.20;99.90;;;-141.84;84.03;20000.81;5028673;28;20233;-65
2023/09/04 00:27:10;;;;;;;4.82;4.13;;;14.20;99.90;;;-141.84;84.30;19986.59;5027558;28;20310;-64
2023/09/04 00:29:40;;;;;;;5.88;3.92;;;14.20;99.90;;;-141.84;84.25;20004.88;5025355;28;20237;-66
2023/09/04 00:32:08;;;;;;;5.97;4.68;;;14.20;99.90;;;-141.84;84.74;19966.28;5024154;28;20261;-65
2023/09/04 00:34:37;;;;;;;4.65;3.78;;;14.20;99.90;;;-141.84;84.91;19980.50;5019936;28;20253;-65
2023/09/04 00:37:09;;;;;;;3.97;3.55;;;14.10;99.90;;;-141.84;85.33;19978.47;5020912;28;20709;-65
2023/09/04 00:39:38;;;;;;;5.80;3.80;;;14.20;99.90;;;-141.84;85.22;19972.38;5024631;28;20777;-65
2023/09/04 00:42:06;;;;;;;4.30;3.70;;;14.10;99.90;;;-141.84;84.91;19980.50;5033683;28;20221;-65
2023/09/04 00:44:35;;;;;;;4.25;3.80;;;14.20;99.90;;;-141.84;84.73;19937.81;5029158;28;20320;-63
2023/09/04 00:47:05;;;;;;;5.07;4.00;;;14.20;99.90;;;-141.84;84.84;20000.81;5023846;28;20783;-65
2023/09/04 00:49:33;;;;;;;4.22;3.83;;;14.10;99.90;;;-141.84;85.68;19929.69;5024143;28;20232;-65
2023/09/04 00:52:02;;;;;;;4.30;3.90;;;14.10;99.90;;;-141.84;85.66;19962.19;5023881;28;20308;-66
2023/09/04 00:54:31;;;;;;;5.30;3.97;;;14.10;99.90;;;-141.84;84.97;19988.63;5033570;28;20225;-65
2023/09/04 00:57:02;;;;;;;6.32;3.83;;;14.10;99.90;;;-141.84;84.99;19960.16;5039571;28;20313;-65
2023/09/04 00:59:31;;;;;;;4.40;4.00;;;14.10;99.90;;;-141.84;85.11;19958.13;5044871;28;20564;-65
2023/09/04 01:02:01;;;;;;;3.88;3.50;;;14.10;99.90;;;-141.84;85.16;19945.94;5043891;28;20267;-65
2023/09/04 01:04:31;;;;;;;4.82;3.95;;;14.00;99.90;;;-141.84;85.40;19929.69;5042903;28;20320;-65
2023/09/04 01:07:00;;;;;;;5.50;3.97;;;13.90;99.90;;;-141.84;85.06;19966.28;5041534;28;20237;-65
2023/09/04 01:09:28;;;;;;;4.30;3.90;;;14.10;99.90;;;-141.84;84.88;19976.44;5044510;28;20700;-65
2023/09/04 01:12:05;;;;;;;4.25;3.85;;;14.10;99.90;;;-141.84;85.72;19915.47;5047023;28;20235;-64
2023/09/04 01:14:36;;;;;;;4.45;4.00;;;14.00;99.90;;;-141.84;86.14;19917.50;5031495;28;20202;-64
2023/09/04 01:17:05;;;;;;;4.40;3.80;;;13.90;99.90;;;-141.84;85.90;19980.50;5027446;28;20237;-66
2023/09/04 01:19:38;;;;;;;4.80;3.90;;;13.90;99.90;;;-141.84;86.00;19956.09;5027988;28;20233;-65
2023/09/04 01:22:09;;;;;;;4.85;4.15;;;13.90;99.90;;;-141.84;86.05;19925.63;5027871;28;20264;-64
2023/09/04 01:24:39;;;;;;;4.32;3.92;;;13.90;99.90;;;-141.84;86.01;19943.91;5031969;28;20245;-65
2023/09/04 01:27:14;;;;;;;4.80;4.40;;;13.90;99.90;;;-141.84;85.97;19917.50;5030849;28;20245;-65
2023/09/04 01:29:57;;;;;;;5.03;4.13;;;13.90;99.90;;;-141.84;85.95;19960.16;5028092;28;20228;-65
2023/09/04 01:32:37;;;;;;;4.25;3.85;;;13.90;99.90;;;-141.84;85.71;19947.97;5028100;28;20680;-65
2023/09/04 01:35:11;;;;;;;6.10;4.22;;;13.90;99.90;;;-141.84;86.27;19923.59;5027391;28;20287;-65
2023/09/04 01:37:43;;;;;;;7.03;4.40;;;13.80;99.90;;;-141.84;86.71;19893.09;5027361;28;20738;-64
2023/09/04 01:40:12;;;;;;;5.05;4.55;;;13.80;99.90;;;-141.84;86.96;19878.88;5027490;28;20229;-66
2023/09/04 01:42:40;;;;;;;4.95;4.50;;;13.80;99.90;;;-141.84;87.38;19903.25;5019822;28;20275;-65
2023/09/04 01:45:09;;;;;;;5.63;4.57;;;13.70;99.90;;;-141.84;86.98;19905.28;5027160;28;20309;-65
2023/09/04 01:47:38;;;;;;;6.53;5.10;;;13.70;99.90;;;-141.84;86.57;19913.44;5027806;28;20301;-65
2023/09/04 01:50:08;;;;;;;5.70;5.10;;;13.80;99.90;;;-141.84;86.64;19876.84;5026963;28;20238;-65
2023/09/04 01:52:36;;;;;;;6.25;5.05;;;13.70;99.90;;;-141.84;86.80;19876.84;5019638;28;20253;-63
2023/09/04 01:55:07;;;;;;;5.13;4.57;;;13.70;99.90;;;-141.84;86.89;19893.09;5026502;28;20230;-65
2023/09/04 01:57:35;;;;;;;5.38;4.88;;;13.70;99.90;;;-141.84;86.95;19895.13;5026078;28;20308;-66
2023/09/04 02:00:05;;;;;;;5.00;4.60;;;13.70;99.90;;;-141.84;87.66;19911.41;5019254;28;20297;-66
2023/09/04 02:02:33;;;;;;;4.95;4.45;;;13.60;99.90;;;-141.84;88.24;19838.22;5004376;28;20265;-64
2023/09/04 02:05:01;;;;;;;5.63;5.07;;;13.60;99.90;;;-141.84;88.11;19852.44;5005429;28;20292;-65
2023/09/04 02:07:29;;;;;;;6.20;5.60;;;13.60;99.90;;;-141.84;88.03;19870.75;5007019;28;20237;-64
2023/09/04 02:09:58;;;;;;;6.85;5.05;;;13.60;99.90;;;-141.84;88.15;19850.41;5007321;28;20250;-64
2023/09/04 02:12:27;;;;;;;5.95;5.35;;;13.50;99.90;;;-141.84;88.65;19850.41;5006511;28;20570;-65
2023/09/04 02:14:55;;;;;;;6.22;5.13;;;13.50;99.90;;;-141.84;88.81;19884.97;5000119;28;20661;-65
2023/09/04 02:17:24;;;;;;;6.18;5.57;;;13.50;99.90;;;-141.84;88.92;19852.44;5007054;28;20226;-65
2023/09/04 02:19:52;;;;;;;6.45;5.85;;;13.50;99.90;;;-141.84;88.62;19844.31;5023080;28;20238;-64
2023/09/04 02:22:20;;;;;;;6.32;5.70;;;13.50;99.90;;;-141.84;88.45;19854.50;5025905;28;20288;-66
2023/09/04 02:24:48;;;;;;;6.55;5.60;;;13.50;99.90;;;-141.84;88.67;19842.28;5031647;28;20268;-65
2023/09/04 02:27:16;;;;;;;6.32;5.72;;;13.50;99.90;;;-141.84;88.63;19819.94;5028511;28;20249;-66
2023/09/04 02:29:46;;;;;;;7.15;5.60;;;13.50;99.90;;;-141.84;88.78;19878.88;5026977;28;20289;-65
2023/09/04 02:32:14;;;;;;;5.75;5.18;;;13.40;99.90;;;-141.84;89.04;19811.81;5025720;28;20317;-65
2023/09/04 02:34:42;;;;;;;7.05;5.72;;;13.40;99.90;;;-141.84;89.48;19821.97;5019714;28;20232;-65
2023/09/04 02:37:11;;;;;;;8.10;5.60;;;13.40;99.90;;;-141.84;89.51;19834.16;5026466;28;20312;-65
2023/09/04 02:39:39;;;;;;;6.68;5.93;;;13.40;99.90;;;-141.84;88.84;19826.03;5026169;28;20229;-66
2023/09/04 02:42:07;;;;;;;5.80;5.20;;;13.40;99.90;;;-141.84;88.59;19815.88;5026454;28;20659;-65
2023/09/04 02:44:35;;;;;;;6.10;5.15;;;13.40;99.90;;;-141.84;89.01;19846.34;5020514;28;20229;-63
2023/09/04 02:47:05;;;;;;;7.20;6.22;;;13.30;99.90;;;-141.84;88.86;19842.28;5025809;28;20329;-66
2023/09/04 02:49:33;;;;;;;7.80;5.78;;;13.30;99.90;;;-141.84;88.52;19826.03;5026306;28;20317;-65
2023/09/04 02:52:02;;;;;;;6.05;5.22;;;13.30;99.90;;;-141.84;87.99;19842.28;5025983;28;20237;-65
2023/09/04 02:54:30;;;;;;;6.30;5.70;;;13.30;99.90;;;-141.84;88.04;19862.63;5035531;28;20780;-65
2023/09/04 02:56:58;;;;;;;6.20;5.40;;;13.30;99.90;;;-141.84;88.06;19838.22;5022314;28;20298;-64
2023/09/04 02:59:27;;;;;;;6.82;5.82;;;13.30;99.90;;;-141.84;88.39;19826.03;5042026;28;20290;-65
2023/09/04 03:01:55;;;;;;;6.10;5.50;;;13.30;99.90;;;-141.84;88.69;19821.97;5046301;28;20232;-64
2023/09/04 03:04:24;;;;;;;6.65;5.97;;;13.30;99.90;;;-141.84;88.66;19813.84;5045373;28;20233;-65
2023/09/04 03:06:53;;;;;;;6.15;5.32;;;13.30;99.90;;;-141.84;88.56;19828.06;5037994;28;20384;-64
2023/09/04 03:09:21;;;;;;;5.85;4.90;;;13.30;99.90;;;-141.84;88.31;19801.66;5045489;28;20323;-65
2023/09/04 03:11:49;;;;;;;7.68;5.63;;;13.30;99.90;;;-141.84;88.28;19862.63;5045672;28;20818;-65
2023/09/04 03:14:17;;;;;;;8.10;5.57;;;13.30;99.90;;;-141.84;88.68;19836.19;5032832;28;20772;-65
2023/09/04 03:16:45;;;;;;;6.30;5.70;;;13.30;99.90;;;-141.84;88.82;19850.41;5018892;28;20307;-66
2023/09/04 03:19:13;;;;;;;6.30;5.70;;;13.20;99.90;;;-141.84;88.70;19799.63;5025538;28;20226;-65
2023/09/04 03:21:43;;;;;;;6.30;5.25;;;13.30;99.90;;;-141.84;88.97;19826.03;5025144;28;20761;-66
2023/09/04 03:24:12;;;;;;;6.10;5.50;;;13.30;99.90;;;-141.84;89.50;19783.34;5032644;28;20734;-64
2023/09/04 03:26:40;;;;;;;6.35;5.75;;;13.20;99.90;;;-141.84;89.31;19807.75;5026275;28;20308;-65
2023/09/04 03:29:08;;;;;;;8.13;6.13;;;13.30;99.90;;;-141.84;89.04;19801.66;5025901;28;20328;-65
2023/09/04 03:31:36;;;;;;;8.77;5.95;;;13.20;99.90;;;-141.84;88.65;19805.72;5025784;28;20299;-65
2023/09/04 03:34:05;;;;;;;6.38;5.75;;;13.20;99.90;;;-141.84;88.95;19781.31;5024416;28;20233;-65
2023/09/04 03:36:34;;;;;;;6.57;5.55;;;13.20;99.90;;;-141.84;89.50;19781.31;5022459;28;20597;-67
2023/09/04 03:39:06;;;;;;;6.85;5.72;;;13.30;99.90;;;-141.84;89.59;19850.41;5025021;28;20296;-65
2023/09/04 03:41:34;;;;;;;7.03;5.60;;;13.20;99.90;;;-141.84;89.92;19787.41;5025232;28;20210;-65
2023/09/04 03:44:03;;;;;;;6.55;5.88;;;13.00;99.90;;;-141.84;89.73;19769.13;5024698;28;20236;-65
2023/09/04 03:46:31;;;;;;;6.70;5.97;;;13.20;99.90;;;-141.84;89.00;19785.38;5025043;28;20320;-65
2023/09/04 03:48:59;;;;;;;7.90;6.17;;;13.20;99.90;;;-141.84;88.71;19805.72;5024566;28;20846;-65
2023/09/04 03:51:27;;;;;;;6.60;6.00;;;13.20;99.90;;;-141.84;88.84;19817.91;5025209;28;20221;-64
2023/09/04 03:54:01;;;;;;;7.23;6.53;;;13.20;99.90;;;-141.84;88.96;19785.38;5029393;28;20213;-65
2023/09/04 03:56:32;;;;;;;7.80;6.05;;;13.10;99.90;;;-141.84;89.06;19797.59;5045168;28;20201;-66
2023/09/04 03:59:00;;;;;;;6.65;5.93;;;13.10;99.90;;;-141.84;89.11;19793.50;5043386;28;20240;-65
2023/09/04 04:01:31;;;;;;;7.93;6.17;;;13.10;99.90;;;-141.84;89.12;19787.41;5044333;28;20233;-65
2023/09/04 04:04:00;;;;;;;8.15;6.00;;;13.10;99.90;;;-141.84;89.48;19777.25;5044814;28;20225;-66
2023/09/04 04:06:28;;;;;;;7.13;6.27;;;13.10;99.90;;;-141.84;89.43;19752.88;5043800;28;20316;-65
2023/09/04 04:08:56;;;;;;;7.38;6.40;;;13.10;99.90;;;-141.84;89.34;19777.25;5035819;28;20270;-66
2023/09/04 04:11:24;;;;;;;6.85;6.20;;;13.00;99.90;;;-141.84;89.36;19787.41;5044984;28;20241;-64
2023/09/04 04:13:54;;;;;;;6.45;5.85;;;13.10;99.90;;;-141.84;89.87;19775.22;5035515;28;20309;-65
2023/09/04 04:16:22;;;;;;;6.63;5.93;;;13.00;99.90;;;-141.84;89.99;19728.47;5024285;28;20785;-65
2023/09/04 04:18:50;;;;;;;6.77;6.17;;;13.00;99.90;;;-141.84;90.32;19783.34;5016931;28;20233;-65
2023/09/04 04:21:18;;;;;;;7.07;6.00;;;13.00;99.90;;;-141.84;90.78;19722.38;5024512;28;20236;-65
2023/09/04 04:23:47;;;;;;;7.45;6.57;;;13.00;99.90;;;-141.84;91.31;19763.03;5027729;28;20300;-65
2023/09/04 04:26:15;;;;;;;8.37;6.90;;;13.00;99.90;;;-141.84;90.66;19754.91;5034785;28;20746;-65
2023/09/04 04:28:43;;;;;;;7.20;6.50;;;13.00;99.90;;;-141.84;90.26;19761.00;5016456;28;20376;-65
2023/09/04 04:31:12;;;;;;;7.35;6.55;;;13.00;99.90;;;-141.84;90.48;19736.59;5023771;28;20230;-67
2023/09/04 04:33:41;;;;;;;7.10;6.40;;;13.00;99.90;;;-141.84;90.53;19761.00;5023540;28;20736;-64
2023/09/04 04:36:09;;;;;;;8.15;6.50;;;13.00;99.90;;;-141.84;90.13;19791.47;5024321;28;20313;-65
2023/09/04 04:38:37;;;;;;;6.65;5.95;;;13.00;99.90;;;-141.84;89.57;19779.28;5017580;28;20233;-66
2023/09/04 04:41:05;;;;;;;7.25;6.22;;;13.10;99.90;;;-141.84;89.71;19781.31;5022666;28;20279;-65
2023/09/04 04:43:34;;;;;;;7.10;6.22;;;13.10;99.90;;;-141.84;89.48;19777.25;5021823;28;20241;-66
2023/09/04 04:46:02;;;;;;;7.22;6.35;;;13.10;99.90;;;-141.84;89.54;19807.75;5023975;28;20317;-65
2023/09/04 04:48:31;;;;;;;6.80;6.10;;;13.20;99.90;;;-141.84;89.20;19819.94;5024101;28;20248;-66
2023/09/04 04:51:00;;;;;;;8.45;6.00;;;13.20;99.90;;;-141.84;89.21;19779.28;5021013;28;20217;-65
2023/09/04 04:53:28;;;;;;;7.00;6.30;;;13.20;99.90;;;-141.84;89.36;19793.50;5025292;28;20260;-65
2023/09/04 04:55:56;;;;;;;6.70;5.93;;;13.20;99.90;;;-141.84;89.54;19803.69;5043352;28;20319;-65
2023/09/04 04:58:25;;;;;;;8.02;6.75;;;13.20;99.90;;;-141.84;89.09;19842.28;5043623;28;20221;-66
2023/09/04 05:00:54;;;;;;;6.90;6.20;;;13.30;99.90;;;-141.84;88.65;19803.69;5035725;28;20221;-65
2023/09/04 05:03:22;;;;;;;6.55;5.95;;;13.30;99.90;;;-141.84;88.63;19824.00;5043605;28;20233;-66
2023/09/04 05:05:51;;;;;;;6.97;5.97;;;13.10;99.90;;;-141.84;88.61;19834.16;5042347;28;20202;-65
2023/09/04 05:08:20;;;;;;;6.82;6.13;;;13.40;99.90;;;-141.84;88.86;19813.84;5042457;28;20240;-66
2023/09/04 05:11:00;;;;;;;6.88;6.15;;;13.40;99.90;;;-141.84;89.35;19787.41;5033943;28;20248;-65
2023/09/04 05:13:29;;;;;;;7.20;6.45;;;13.40;99.90;;;-141.84;89.87;19817.91;5036171;28;20287;-66
2023/09/04 05:16:02;;;;;;;8.13;6.38;;;13.50;99.90;;;-141.84;89.52;19811.81;5021952;28;20751;-64
2023/09/04 05:18:30;;;;;;;8.40;7.00;;;13.60;99.90;;;-141.84;88.58;19856.53;5022742;28;20234;-65
2023/09/04 05:21:00;;;;;;;9.32;7.63;;;13.70;99.90;;;-141.84;87.39;19846.34;5017060;28;20210;-66
2023/09/04 05:23:28;;;;;;;7.68;6.88;;;13.80;99.90;;;-141.84;85.86;19915.47;5023051;28;20666;-65
2023/09/04 05:25:56;;;;;;;8.00;7.05;;;13.90;99.90;;;-141.84;85.89;19933.75;5031627;28;20312;-65
2023/09/04 05:28:24;;;;;;;10.32;7.20;;;14.20;99.90;;;-141.84;84.85;19956.09;5022333;28;20221;-65
2023/09/04 05:30:53;;;;;;;10.63;7.57;;;14.40;99.90;;;-141.84;84.11;19984.56;5014761;28;20392;-65
2023/09/04 05:33:21;;;;;;;7.75;7.00;;;14.60;99.90;;;-141.84;83.68;20015.03;5022292;28;20751;-65
2023/09/04 05:35:56;;;;;;;7.43;6.60;;;14.80;99.90;;;-141.84;81.85;20027.25;5022552;28;20297;-67
2023/09/04 05:38:26;;;;;;;7.47;6.57;;;14.90;99.90;;;-141.84;81.47;20092.28;5022140;28;20225;-65
2023/09/04 05:40:55;;;;;;;7.40;6.63;;;15.10;99.90;;;-141.84;81.31;20053.66;5013693;28;23584;-65
2023/09/04 05:43:23;;;;;;;8.88;7.28;;;15.20;99.90;;;-141.84;79.69;20114.63;5021680;28;20703;-65
2023/09/04 05:45:51;;;;;;;10.43;7.15;;;15.30;99.90;;;-141.84;79.50;20114.63;5021604;28;20607;-66
2023/09/04 05:48:20;;;;;;;7.90;7.10;;;15.30;99.90;;;-141.84;78.13;20139.03;5021526;28;20597;-64
2023/09/04 05:50:48;;;;;;;9.48;7.68;;;15.30;99.90;;;-141.84;77.67;20165.44;5015462;28;20218;-65
2023/09/04 05:53:18;;;;;;;10.23;7.88;;;15.40;99.90;;;-141.84;77.17;20155.28;5038667;28;20233;-65
2023/09/04 05:56:09;;;;;;;9.43;7.72;;;15.50;99.90;;;-141.84;77.87;20159.34;5042419;28;20319;-66
2023/09/04 05:58:45;;;;;;;8.35;7.53;;;15.50;99.90;;;-141.84;78.64;20179.69;5027941;28;20225;-65
2023/09/04 06:01:14;;;;;;;8.23;7.40;;;15.60;99.90;;;-141.84;78.58;20163.41;5025708;28;20229;-65
2023/09/04 06:03:44;;;;;;;9.93;7.15;;;15.60;99.90;;;-141.84;78.64;20173.59;5025524;28;20308;-66
2023/09/04 06:06:14;;;;;;;7.45;6.75;;;15.70;99.90;;;-141.84;78.21;20177.66;5022652;28;20213;-65
2023/09/04 06:08:42;;;;;;;9.18;7.25;;;15.80;99.90;;;-141.84;77.03;20212.19;4998587;28;20226;-64
2023/09/04 06:11:13;;;;;;;9.80;6.57;;;15.90;99.90;;;-141.84;76.84;20220.34;4986600;28;20707;-65
2023/09/04 06:13:41;;;;;;;8.75;7.13;;;16.00;99.90;;;-141.84;76.88;20226.44;5018207;28;20226;-65
2023/09/04 06:16:09;;;;;;;6.88;6.18;;;16.00;99.90;;;-141.84;76.87;20246.75;5024802;28;20280;-65
2023/09/04 06:18:38;;;;;;;9.57;6.60;;;16.10;99.90;;;-141.84;76.70;20256.91;5017461;28;20309;-65
2023/09/04 06:21:06;;;;;;;8.30;6.50;;;16.20;99.90;;;-141.84;76.66;20281.31;5024387;28;20297;-65
2023/09/04 06:23:34;;;;;;;7.93;7.15;;;16.30;99.90;;;-141.84;76.15;20285.38;5027307;28;20268;-68
2023/09/04 06:26:03;;;;;;;7.75;6.45;;;16.40;99.90;;;-141.84;74.62;20340.25;5037312;28;20321;-66
2023/09/04 06:28:33;;;;;;;7.47;6.78;;;16.50;99.90;;;-141.84;74.87;20297.56;5024311;28;20253;-68
2023/09/04 06:31:01;;;;;;;6.57;5.88;;;16.70;99.90;;;-141.84;74.77;20297.56;5019481;28;20234;-67
2023/09/04 06:33:33;;;;;;;8.00;6.88;;;16.70;99.90;;;-141.84;74.87;20313.84;5023754;28;20304;-67
2023/09/04 06:36:01;;;;;;;8.85;6.55;;;16.60;99.90;;;-141.84;74.94;20303.66;5023324;28;20220;-66
2023/09/04 06:38:29;;;;;;;7.15;6.45;;;16.60;99.90;;;-141.84;74.73;20313.84;5024009;28;20202;-68
2023/09/04 06:40:58;;;;;;;6.00;5.40;;;16.70;99.90;;;-141.84;74.98;20340.25;5016674;28;20344;-67
2023/09/04 06:43:28;;;;;;;6.00;5.40;;;16.70;99.90;;;-141.84;74.95;20366.69;5023990;28;20237;-69
2023/09/04 06:45:58;;;;;;;8.48;6.43;;;16.70;99.90;;;-141.84;75.14;20354.47;5024585;28;20226;-67
2023/09/04 06:48:27;;;;;;;6.63;5.85;;;16.70;99.90;;;-141.84;74.45;20328.06;5032630;28;20233;-67
2023/09/04 06:50:56;;;;;;;10.13;7.13;;;16.80;99.90;;;-141.84;73.94;20340.25;5037652;28;20204;-67
2023/09/04 06:53:24;;;;;;;9.25;7.75;;;16.80;99.90;;;-141.84;73.11;20387.00;5044916;28;20430;-67
2023/09/04 06:55:52;;;;;;;7.28;5.85;;;16.80;99.90;;;-141.84;73.59;20378.88;5042877;28;20312;-67
2023/09/04 06:58:21;;;;;;;9.80;7.22;;;16.80;99.90;;;-141.84;72.76;20423.59;5043569;28;20229;-67
2023/09/04 07:00:49;;;;;;;7.60;6.90;;;16.90;99.90;;;-141.84;72.57;20439.84;5036302;28;20237;-67
2023/09/04 07:03:22;;;;;;;8.60;6.20;;;16.90;99.90;;;-141.84;73.27;20374.81;5042737;28;20233;-67
2023/09/04 07:05:51;;;;;;;11.88;6.63;;;17.00;99.90;;;-141.84;73.41;20435.78;5044570;28;20210;-67
2023/09/04 07:08:19;;;;;;;10.20;7.10;;;17.00;99.90;;;-141.84;73.27;20427.66;5038310;28;20265;-67
2023/09/04 07:10:48;;;;;;;6.95;6.25;;;17.10;99.90;;;-141.84;73.33;20452.06;5016884;28;20646;-67
2023/09/04 07:13:17;;;;;;;8.85;6.38;;;17.10;99.90;;;-141.84;73.04;20468.31;5024309;28;20316;-67
2023/09/04 07:15:45;;;;;;;8.27;6.40;;;17.20;99.90;;;-141.84;72.69;20513.03;5024491;28;20353;-67
2023/09/04 07:18:14;;;;;;;7.53;5.63;;;17.30;99.90;;;-141.84;72.27;20500.84;5023695;28;20299;-67
2023/09/04 07:20:43;;;;;;;6.65;5.38;;;17.40;99.90;;;-141.84;71.88;20496.78;5017122;28;20210;-67
2023/09/04 07:23:11;;;;;;;8.30;6.82;;;17.50;99.90;;;-141.84;71.15;20555.72;5023862;28;20333;-67
2023/09/04 07:25:57;;;;;;;9.80;5.68;;;17.60;99.90;;;-141.84;71.43;20527.25;5010579;28;20595;-67
2023/09/04 07:28:25;;;;;;;6.35;5.60;;;17.60;99.90;;;-141.84;70.73;20549.63;5023851;28;20268;-66
2023/09/04 07:31:16;;;;;;;5.68;5.10;;;17.70;99.90;;;-141.84;70.39;20576.03;5016046;28;20230;-66
2023/09/04 07:33:47;;;;;;;6.55;5.72;;;17.80;99.90;;;-141.84;69.51;20663.47;5024124;28;20784;-67
2023/09/04 07:36:17;;;;;;;8.27;5.38;;;17.80;99.90;;;-141.84;67.46;20689.88;5023929;28;20633;-67
2023/09/04 07:38:47;;;;;;;4.88;4.32;;;17.90;99.90;;;-141.84;67.89;20673.63;5017190;28;20661;-66
2023/09/04 07:41:16;;;;;;;6.90;4.82;;;18.00;99.90;;;-141.84;67.96;20677.69;5024224;28;20709;-67
2023/09/04 07:43:44;;;;;;;6.22;4.07;;;18.00;99.90;;;-141.84;68.57;20691.91;5023928;28;20257;-67
2023/09/04 07:46:12;;;;;;;6.70;4.80;;;18.10;99.90;;;-141.84;67.14;20736.63;5031324;28;20701;-67
2023/09/04 07:48:41;;;;;;;6.38;4.20;;;18.10;99.90;;;-141.84;66.77;20722.41;5016274;28;20614;-66
2023/09/04 07:51:10;;;;;;;6.28;4.00;;;18.20;99.90;;;-141.84;66.71;20767.13;5023758;28;20648;-67
2023/09/04 07:53:59;;;;;;;5.50;4.03;;;18.20;99.90;;;-141.84;66.81;20769.16;5028001;28;20217;-65
2023/09/04 07:56:28;;;;;;;4.97;3.60;;;18.30;99.90;;;-141.84;66.50;20797.63;5043538;28;20669;-66
2023/09/04 07:59:08;;;;;;;5.35;3.83;;;18.40;99.90;;;-141.84;65.44;20817.94;5043616;28;20283;-67
2023/09/04 08:01:36;;;;;;;5.93;3.90;;;18.50;99.90;;;-141.84;64.85;20856.56;5043385;28;20329;-68
2023/09/04 08:04:06;;;;;;;6.22;3.58;;;18.60;99.90;;;-141.84;65.23;20907.41;5041788;28;20237;-66
2023/09/04 08:06:34;;;;;;;4.88;3.33;;;18.70;99.90;;;-141.84;63.53;20939.94;5019340;28;20288;-66
2023/09/04 08:09:04;;;;;;;4.97;3.42;;;18.80;99.90;;;-141.84;63.57;20966.34;5023844;28;20599;-67
2023/09/04 08:11:32;;;;;;;3.97;2.70;;;18.80;99.90;;;-141.84;63.47;20939.94;5023826;28;20689;-67
2023/09/04 08:14:01;;;;;;;4.00;3.05;;;18.80;99.90;;;-141.84;63.06;20994.81;5022712;28;20233;-67
2023/09/04 08:16:29;;;;;;;3.20;2.90;;;19.00;99.90;;;-141.84;62.13;20998.88;5023122;28;20279;-67
2023/09/04 08:18:57;;;;;;;3.40;3.10;;;19.00;99.90;;;-141.84;62.61;21021.25;5014595;28;20237;-68
2023/09/04 08:21:26;;;;;;;3.17;2.85;;;19.10;99.90;;;-141.84;62.43;21068.00;5023607;28;20250;-67
2023/09/04 08:23:55;;;;;;;3.20;2.90;;;19.10;99.90;;;-141.84;62.07;21082.25;5027371;28;20623;-66
2023/09/04 08:26:24;;;;;;;5.25;3.00;;;19.10;99.90;;;-141.84;61.93;21082.25;5033340;28;20237;-67
2023/09/04 08:28:53;;;;;;;3.88;2.78;;;19.20;99.90;;;-141.84;61.17;21072.06;5015536;28;20241;-67
2023/09/04 08:31:21;;;;;;;3.20;2.72;;;19.20;99.90;;;-141.84;60.94;21094.44;5021334;28;20736;-67
2023/09/04 08:33:50;;;;;;;2.70;2.10;;;19.30;99.90;;;-141.84;59.42;21143.22;5022504;28;20249;-67
2023/09/04 08:36:18;;;;;;;2.88;2.13;;;19.30;99.90;;;-141.84;59.32;21159.50;5023233;28;20283;-68
2023/09/04 08:38:46;;;;;;;2.50;2.30;;;19.40;99.90;;;-141.84;59.03;21173.72;5014898;28;20211;-67
2023/09/04 08:41:20;;;;;;;4.25;2.60;;;19.50;99.90;;;-141.84;59.45;21175.75;5033581;28;20233;-66
2023/09/04 08:43:50;;;;;;;4.13;2.60;;;19.50;99.90;;;-141.84;59.41;21175.75;5042680;28;20244;-67
2023/09/04 08:46:21;;;;;;;4.50;2.60;;;19.50;99.90;;;-141.84;60.02;21192.03;5029133;28;20276;-66
2023/09/04 08:48:52;;;;;;;2.75;2.25;;;19.50;99.90;;;-141.84;59.16;21212.34;5015662;28;20291;-68
2023/09/04 08:51:38;;;;;;;2.45;2.25;;;19.60;99.90;;;-141.84;58.47;21253.00;5022918;28;20233;-66
2023/09/04 08:54:07;;;;;;;2.67;2.45;;;19.70;99.90;;;-141.84;57.95;21263.19;5028950;28;20296;-68
2023/09/04 08:56:35;;;;;;;3.13;2.83;;;19.80;99.90;;;-141.84;57.90;21281.47;5035217;28;20311;-66
2023/09/04 08:59:05;;;;;;;2.97;2.20;;;19.90;99.90;;;-141.84;58.29;21277.41;5042789;28;20229;-67
2023/09/04 09:01:37;;;;;;;3.60;2.60;;;19.90;99.90;;;-141.84;56.57;21281.47;5042273;28;20298;-67
2023/09/04 09:04:06;;;;;;;2.80;2.55;;;20.00;99.90;;;-141.84;57.10;21287.56;5042521;28;20304;-66
2023/09/04 09:06:36;;;;;;;2.47;2.17;;;20.00;99.90;;;-141.84;57.17;21289.59;5035147;28;20270;-66
2023/09/04 09:09:07;;;;;;;3.17;2.30;;;20.00;99.90;;;-141.84;56.24;21344.50;5042338;28;20225;-66
2023/09/04 09:11:35;;;;;;;2.97;1.98;;;20.00;99.90;;;-141.84;56.37;21342.47;5027637;28;20218;-67
2023/09/04 09:14:05;;;;;;;2.70;2.50;;;20.00;99.90;;;-141.84;57.01;21336.38;5021950;28;20261;-66
2023/09/04 09:16:33;;;;;;;2.70;2.30;;;20.00;99.90;;;-141.84;56.96;21372.97;5020219;28;20257;-66
2023/09/04 09:19:03;;;;;;;4.00;2.70;;;20.10;99.90;;;-141.84;56.56;21379.06;5019087;28;20299;-68
2023/09/04 09:21:33;;;;;;;2.22;2.03;;;20.20;99.90;;;-141.84;56.88;21383.13;5022127;28;20309;-65
2023/09/04 09:24:16;;;;;;;2.65;2.45;;;20.30;99.90;;;-141.84;56.16;21415.66;5027404;28;20311;-67
2023/09/04 09:26:47;;;;;;;3.42;2.40;;;20.40;99.90;;;-141.84;56.42;21442.09;5021567;28;20201;-67
2023/09/04 09:29:18;;;;;;;2.28;2.08;;;20.50;99.90;;;-141.84;56.20;21458.38;5022932;28;20242;-67
2023/09/04 09:31:47;;;;;;;3.05;2.60;;;20.50;99.90;;;-141.84;54.66;21507.16;5025282;28;20221;-65
2023/09/04 09:34:16;;;;;;;2.65;2.30;;;20.60;99.90;;;-141.84;55.25;21456.34;5026289;28;20233;-67
2023/09/04 09:36:45;;;;;;;2.50;2.30;;;20.60;99.90;;;-141.84;55.15;21442.09;5023136;28;20221;-67
2023/09/04 09:39:15;;;;;;;2.53;2.30;;;20.60;99.90;;;-141.84;55.35;21440.06;5046342;28;21283;-68
2023/09/04 09:41:46;;;;;;;4.03;2.30;;;20.60;99.90;;;-141.84;54.90;21537.66;5039954;28;20237;-66
2023/09/04 09:44:15;;;;;;;3.78;2.50;;;20.70;99.90;;;-141.84;54.64;21533.59;5025819;28;20269;-66
2023/09/04 09:46:44;;;;;;;2.85;2.40;;;20.70;99.90;;;-141.84;54.67;21541.72;5019287;28;20317;-67
2023/09/04 09:49:12;;;;;;;2.72;2.45;;;20.80;99.90;;;-141.84;54.37;21570.19;5026382;28;20233;-67
2023/09/04 09:51:40;;;;;;;3.72;2.40;;;20.90;99.90;;;-141.84;54.01;21533.59;5026050;28;20709;-67
2023/09/04 09:54:12;;;;;;;3.67;2.53;;;20.80;99.90;;;-141.84;53.44;21576.28;5032324;28;20271;-68
2023/09/04 09:56:43;;;;;;;3.38;2.00;;;20.90;99.90;;;-141.84;53.98;21572.22;5038063;28;20274;-65
2023/09/04 09:59:13;;;;;;;2.67;2.47;;;20.90;99.90;;;-141.84;54.45;21592.56;5045697;28;20271;-67
2023/09/04 10:01:44;;;;;;;4.05;2.50;;;21.00;99.90;;;-141.84;54.37;21604.75;5045294;28;20229;-67
2023/09/04 10:04:14;;;;;;;2.55;2.35;;;21.10;99.90;;;-141.84;54.07;21600.69;5045974;28;20229;-67
2023/09/04 10:06:44;;;;;;;2.58;2.38;;;21.10;99.90;;;-141.84;53.21;21614.94;5033323;28;20245;-67
2023/09/04 10:09:18;;;;;;;3.10;2.78;;;21.10;99.90;;;-141.84;54.13;21627.13;5026202;28;20965;-67
2023/09/04 10:11:53;;;;;;;2.47;2.22;;;21.00;99.90;;;-141.84;53.96;21568.16;5025908;28;20301;-67
2023/09/04 10:14:33;;;;;;;2.40;2.08;;;21.00;99.90;;;-141.84;53.44;21637.28;5025203;28;20221;-67
2023/09/04 10:17:08;;;;;;;2.45;1.90;;;21.00;99.90;;;-141.84;53.27;21631.19;5023332;28;20264;-67